• Join FlightAware (Why Join?)
  • Login
  • US Flag 
08:33AM EST


 

Airport Tracker/Info


-or-


 

Live Flight TrackerFlight Track Log ✈ N244A ✈ 13-Sep-2013 ✈ KTEB - CYUL

Flight Track Log - Related Links

Times and Time Zones

All times are in EDT time to prevent confusion due to time zone crossing. See the N244A flight status page for this flight to view local times or setup timezone preferences in your user account.

Time Position Orientation Groundspeed Altitude Reporting Facility
EDT Latitude Longitude Course Direction KTS MPH feet Rate Location/Type
02:44PM 40.8667 -74.0500 360° North 162 186 1,300  Level New York TRACON
02:45PM 40.9167 -74.0500 360° North 236 272 2,500 1,500 Climbing New York TRACON
02:46PM 40.9500 -74.1500 294° West 270 311 4,500 1,620 Climbing New York TRACON
02:47PM 41.0167 -74.1667 349° North 278 320 6,000 780 Climbing New York TRACON
02:48PM 41.1000 -74.1500 North 292 336 6,100 1,320 Climbing New York TRACON
02:49PM 41.1667 -74.0833 37° Northeast 300 345 8,700 2,820 Climbing New York TRACON
02:51PM 41.2247 -73.8228 73° East 348 400 15,600 2,460 Climbing Boston Center
02:52PM 41.2642 -73.6633 72° East 391 450 17,000 2,100 Climbing Boston Center
02:53PM 41.3197 -73.5264 62° Northeast 414 476 19,900 2,460 Climbing Boston Center
02:54PM 41.3958 -73.4225 46° Northeast 404 465 22,100 1,680 Climbing Boston Center
02:55PM 41.4864 -73.3103 43° Northeast 411 473 23,300 1,560 Climbing Boston Center
02:56PM 41.5642 -73.2086 44° Northeast 427 491 25,200 1,620 Climbing Boston Center
02:57PM 41.6814 -73.1350 25° Northeast 452 520 26,600 840 Climbing Boston Center
02:58PM 41.8147 -73.1364 360° North 450 518 27,000 180 Climbing Boston Center
02:59PM 41.9542 -73.1603 353° North 470 541 27,000  Level Boston Center
03:00PM 42.1042 -73.1817 354° North 503 579 27,000  Level Boston Center
03:01PM 42.2583 -73.1975 356° North 531 611 27,000  Level Boston Center
03:02PM 42.4269 -73.2136 356° North 551 634 27,000  Level Boston Center
03:03PM 42.5831 -73.2325 355° North 557 641 27,000  Level Boston Center
03:04PM 42.7433 -73.2628 352° North 562 647 27,000  Level Boston Center
03:05PM 42.8994 -73.2819 355° North 562 647 27,000  Level Boston Center
03:06PM 43.0578 -73.3039 354° North 562 647 27,000  Level Boston Center
03:07PM 43.2161 -73.3233 355° North 562 647 27,000  Level Boston Center
03:08PM 43.3742 -73.3456 354° North 567 652 27,000  Level Boston Center
03:09PM 43.5136 -73.3647 354° North 567 652 27,000  Level Boston Center
03:10PM 43.6739 -73.3872 354° North 567 652 27,000  Level Boston Center
03:11PM 43.8300 -73.4069 355° North 575 662 27,000 -540 Level Boston Center
03:12PM 43.9800 -73.4267 355° North 553 636 26,000 -1,320 Descending Boston Center
03:13PM 44.1111 -73.4464 354° North 504 580 24,400 -1,920 Descending Boston Center
03:14PM 44.2483 -73.4631 355° North 487 560 22,100 -2,160 Descending Boston Center
03:15PM 44.3919 -73.4831 354° North 481 554 20,100 -1,920 Descending Boston Center
03:16PM 44.5147 -73.4997 354° North 459 528 18,300 -1,680 Descending Boston Center
03:17PM 44.6314 -73.5164 354° North 439 505 16,800 -1,620 Descending Boston Center
03:18PM 44.7417 -73.5303 355° North 413 475 15,100 -1,500 Descending Boston Center
03:19PM 44.8456 -73.5439 355° North 396 456 13,800 -1,500 Descending Boston Center
03:20PM 44.9456 -73.5544 356° North 367 422 12,200 -1,560 Descending Boston Center
03:21PM 45.0167 -73.5500 North 330 380 11,000 -1,320 Descending Montreal Center
03:22PM 45.1167 -73.5667 353° North 310 357 9,700 -1,320 Descending Montreal Center
03:23PM 45.1833 -73.5667 360° North 270 311 8,400 -900 Descending Montreal Center
03:24PM 45.2667 -73.5833 352° North 270 311 8,000 -540 Descending Montreal Center
03:25PM 45.3333 -73.5667 10° North 280 322 7,400 -1,320 Descending Montreal Center
03:27PM 45.4313 -73.6936 318° Northwest  Level Estimated
03:27PM 45.4833 -73.5333 318° Northwest 250 288 4,200  Level Montreal Center
03:28PM 45.5500 -73.5000 19° North 220 253 3,600 -840 Descending Montreal Center
03:29PM 45.5667 -73.5500 295° West 210 242 2,600 -780 Descending Montreal Center
03:30PM 45.5333 -73.6000 226° Southwest 170 196 2,100 -660 Descending Montreal Center
03:31PM 45.5000 -73.6500 226° Southwest 140 161 1,300 -780 Descending Montreal Center
03:32PM 45.4833 -73.7000 245° Southwest 130 150 600 -600 Descending Montreal Center
03:33PM 45.4500 -73.7167 199° South 120 138 100 -300 Descending Montreal Center
03:34PM 45.4500 -73.7167 199° South 10 12 100  Level Montreal Center
03:36PM 45.4500 -73.7167 90° East 30 35 100  Level Montreal Center
03:37PM 45.4667 -73.7167 360° North 30 35 100  Level Montreal Center
03:38PM 45.4667 -73.7167 360° North 20 23 200 60 Climbing Montreal Center